Time;durP1;ratioP1;P1;durP2;ratioP2;P2;SDS_P1;SDS_P2;PMS_P1;PMS_P2;Temp;Humidity;BMP_temperature;BMP_pressure;BME280_temperature;BME280_humidity;BME280_pressure;Samples;Min_cycle;Max_cycle;Signal;HPM_P1;HPM_P2
2021/08/20 00:00:32;;;;;;;33.53;30.70;;;;;;;;;;5034752;28;20440;-86
2021/08/20 00:02:59;;;;;;;34.00;31.20;;;;;;;;;;5034694;28;20456;-86
2021/08/20 00:05:27;;;;;;;34.17;31.37;;;;;;;;;;5035210;28;20444;-86
2021/08/20 00:07:54;;;;;;;34.30;31.50;;;;;;;;;;5035189;28;20438;-86
2021/08/20 00:10:23;;;;;;;35.33;32.50;;;;;;;;;;5034450;28;20440;-86
2021/08/20 00:12:50;;;;;;;35.50;32.50;;;;;;;;;;5034692;28;20416;-86
2021/08/20 00:15:18;;;;;;;35.33;32.23;;;;;;;;;;5034396;28;20465;-86
2021/08/20 00:17:45;;;;;;;35.37;32.23;;;;;;;;;;5034376;28;20451;-86
2021/08/20 00:20:13;;;;;;;34.20;31.70;;;;;;;;;;5034328;28;20423;-86
2021/08/20 00:22:41;;;;;;;32.77;30.23;;;;;;;;;;5034341;28;20412;-86
2021/08/20 00:25:09;;;;;;;33.40;30.80;;;;;;;;;;5034676;28;20503;-86
2021/08/20 00:27:37;;;;;;;32.77;30.27;;;;;;;;;;5034251;28;20403;-86
2021/08/20 00:30:07;;;;;;;33.63;30.93;;;;;;;;;;5034168;28;20407;-86
2021/08/20 00:32:35;;;;;;;34.77;32.00;;;;;;;;;;5034141;28;20877;-86
2021/08/20 00:35:02;;;;;;;36.70;33.53;;;;;;;;;;5034292;28;20816;-86
2021/08/20 00:37:30;;;;;;;38.20;35.00;;;;;;;;;;5034457;28;20439;-86
2021/08/20 00:39:58;;;;;;;38.63;35.10;;;;;;;;;;5034161;28;20469;-86
2021/08/20 00:42:25;;;;;;;37.07;33.97;;;;;;;;;;5034278;28;20524;-86
2021/08/20 00:44:54;;;;;;;39.00;35.60;;;;;;;;;;5034331;28;20411;-85
2021/08/20 00:47:22;;;;;;;41.40;37.30;;;;;;;;;;5034243;28;20440;-86
2021/08/20 00:49:50;;;;;;;40.43;36.43;;;;;;;;;;5034159;28;20872;-86
2021/08/20 00:52:17;;;;;;;40.33;36.83;;;;;;;;;;5033945;28;20796;-86
2021/08/20 00:54:45;;;;;;;38.73;35.13;;;;;;;;;;5034065;28;20489;-86
2021/08/20 00:57:13;;;;;;;36.20;33.10;;;;;;;;;;5033831;28;20420;-86
2021/08/20 00:59:40;;;;;;;38.67;35.40;;;;;;;;;;5034134;28;20449;-86
2021/08/20 01:02:09;;;;;;;38.57;35.07;;;;;;;;;;5034181;28;20420;-86
2021/08/20 01:04:37;;;;;;;38.83;35.03;;;;;;;;;;5033889;28;20434;-86
2021/08/20 01:07:04;;;;;;;36.10;32.90;;;;;;;;;;5016846;28;20411;-86
2021/08/20 01:09:32;;;;;;;39.33;35.43;;;;;;;;;;5034070;28;20437;-86
2021/08/20 01:12:00;;;;;;;36.50;33.43;;;;;;;;;;5033629;28;20411;-85
2021/08/20 01:14:28;;;;;;;38.17;34.70;;;;;;;;;;5033873;28;20934;-86
2021/08/20 01:16:55;;;;;;;36.87;33.23;;;;;;;;;;5034550;28;20896;-86
2021/08/20 01:19:24;;;;;;;36.93;33.73;;;;;;;;;;5016715;28;20427;-86
2021/08/20 01:21:52;;;;;;;35.67;32.67;;;;;;;;;;5033891;28;20809;-86
2021/08/20 01:24:19;;;;;;;38.37;34.47;;;;;;;;;;5033618;28;20430;-86
2021/08/20 01:26:50;;;;;;;36.87;33.60;;;;;;;;;;5033958;28;20444;-86
2021/08/20 01:29:17;;;;;;;37.97;34.57;;;;;;;;;;5033914;28;20520;-86
2021/08/20 01:31:45;;;;;;;37.70;34.40;;;;;;;;;;5033717;28;20458;-86
2021/08/20 01:34:12;;;;;;;36.67;33.37;;;;;;;;;;5033746;28;20454;-86
2021/08/20 01:36:40;;;;;;;37.47;34.00;;;;;;;;;;5033809;28;20415;-86
2021/08/20 01:39:07;;;;;;;38.67;34.93;;;;;;;;;;5033451;28;20442;-86
2021/08/20 01:41:35;;;;;;;41.30;37.43;;;;;;;;;;5033455;28;20939;-86
2021/08/20 01:44:04;;;;;;;38.27;34.53;;;;;;;;;;5038047;28;20430;-87
2021/08/20 01:46:32;;;;;;;39.40;35.50;;;;;;;;;;5037521;28;20443;-86
2021/08/20 01:49:00;;;;;;;37.83;34.50;;;;;;;;;;5037254;28;20411;-86
2021/08/20 01:51:29;;;;;;;40.47;36.57;;;;;;;;;;5037438;28;20439;-86
2021/08/20 01:53:56;;;;;;;38.70;35.20;;;;;;;;;;5037264;28;20824;-86
2021/08/20 01:56:25;;;;;;;38.37;35.00;;;;;;;;;;5037357;28;20760;-86
2021/08/20 01:58:53;;;;;;;38.10;34.60;;;;;;;;;;5036985;28;20438;-86
2021/08/20 02:01:22;;;;;;;37.27;33.87;;;;;;;;;;5019511;28;20443;-86
2021/08/20 02:03:49;;;;;;;35.90;32.60;;;;;;;;;;5037003;28;20950;-86
2021/08/20 02:06:17;;;;;;;37.70;34.40;;;;;;;;;;5037064;28;20431;-86
2021/08/20 02:08:44;;;;;;;36.40;33.00;;;;;;;;;;5037380;28;20404;-86
2021/08/20 02:11:11;;;;;;;37.83;34.63;;;;;;;;;;5036946;28;20460;-86
2021/08/20 02:13:39;;;;;;;36.43;33.03;;;;;;;;;;5036462;28;20410;-86
2021/08/20 02:16:06;;;;;;;36.97;33.77;;;;;;;;;;5036718;28;20430;-85
2021/08/20 02:18:35;;;;;;;39.77;35.87;;;;;;;;;;5037009;28;20415;-86
2021/08/20 02:21:03;;;;;;;36.40;32.93;;;;;;;;;;5036737;28;20410;-86
2021/08/20 02:23:32;;;;;;;36.97;33.67;;;;;;;;;;5036929;28;20440;-86
2021/08/20 02:25:59;;;;;;;36.13;32.83;;;;;;;;;;5036634;28;20456;-86
2021/08/20 02:28:27;;;;;;;37.43;34.20;;;;;;;;;;5036438;28;20455;-86
2021/08/20 02:30:54;;;;;;;36.83;33.63;;;;;;;;;;5036710;28;20424;-86
2021/08/20 02:33:22;;;;;;;37.83;34.20;;;;;;;;;;5036372;28;20449;-84
2021/08/20 02:35:51;;;;;;;37.00;33.70;;;;;;;;;;5036586;28;20550;-86
2021/08/20 02:38:18;;;;;;;37.17;33.63;;;;;;;;;;5036332;28;20447;-86
2021/08/20 02:40:45;;;;;;;36.50;33.30;;;;;;;;;;5036110;28;20483;-86
2021/08/20 02:43:13;;;;;;;37.23;34.00;;;;;;;;;;5018848;28;20427;-86
2021/08/20 02:45:40;;;;;;;36.37;33.43;;;;;;;;;;5036367;28;20430;-86
2021/08/20 02:48:07;;;;;;;36.97;33.73;;;;;;;;;;5036174;28;20443;-86
2021/08/20 02:50:35;;;;;;;36.20;33.13;;;;;;;;;;5036115;28;20433;-86
2021/08/20 02:53:04;;;;;;;36.67;33.10;;;;;;;;;;5035723;28;20460;-86
2021/08/20 02:55:31;;;;;;;37.47;33.90;;;;;;;;;;5035908;28;20488;-86
2021/08/20 02:57:58;;;;;;;34.60;31.70;;;;;;;;;;5035904;28;20411;-86
2021/08/20 03:00:26;;;;;;;35.77;32.40;;;;;;;;;;5035882;28;20426;-86
2021/08/20 03:02:53;;;;;;;36.30;33.03;;;;;;;;;;5036226;28;20418;-86
2021/08/20 03:05:21;;;;;;;36.23;32.87;;;;;;;;;;5036271;28;20428;-86
2021/08/20 03:07:48;;;;;;;36.20;33.03;;;;;;;;;;5035749;28;20494;-86
2021/08/20 03:10:17;;;;;;;35.50;32.40;;;;;;;;;;5018369;28;20480;-86
2021/08/20 03:12:45;;;;;;;35.53;32.40;;;;;;;;;;5035504;28;20407;-86
2021/08/20 03:15:13;;;;;;;36.00;32.80;;;;;;;;;;5035859;28;20462;-86
2021/08/20 03:17:40;;;;;;;37.20;33.43;;;;;;;;;;5035553;28;20414;-87
2021/08/20 03:20:08;;;;;;;36.97;33.77;;;;;;;;;;5035442;28;20407;-86
2021/08/20 03:22:36;;;;;;;34.97;31.90;;;;;;;;;;5035827;28;20443;-86
2021/08/20 03:25:04;;;;;;;33.83;30.93;;;;;;;;;;5035647;28;20411;-86
2021/08/20 03:27:33;;;;;;;35.50;32.50;;;;;;;;;;5018069;28;20472;-87
2021/08/20 03:30:00;;;;;;;34.27;31.27;;;;;;;;;;5017861;28;20459;-86
2021/08/20 03:32:28;;;;;;;33.17;30.57;;;;;;;;;;5035534;28;20422;-87
2021/08/20 03:34:55;;;;;;;35.10;31.87;;;;;;;;;;5035109;28;20446;-86
2021/08/20 03:37:23;;;;;;;35.13;31.93;;;;;;;;;;5017945;28;20857;-86
2021/08/20 03:39:50;;;;;;;36.40;33.30;;;;;;;;;;5035164;28;20981;-86
2021/08/20 03:42:18;;;;;;;35.03;31.67;;;;;;;;;;5035042;28;20441;-86
2021/08/20 03:44:46;;;;;;;35.13;32.17;;;;;;;;;;5034970;28;20411;-86
2021/08/20 03:47:14;;;;;;;37.13;33.63;;;;;;;;;;5035729;28;20430;-86
2021/08/20 03:49:41;;;;;;;35.27;32.33;;;;;;;;;;5035101;28;20441;-86
2021/08/20 03:52:08;;;;;;;36.03;33.03;;;;;;;;;;5035072;28;20436;-86
2021/08/20 03:54:36;;;;;;;33.97;31.07;;;;;;;;;;5034953;28;20457;-86
2021/08/20 03:57:03;;;;;;;35.87;32.87;;;;;;;;;;5034838;28;20453;-86
2021/08/20 03:59:30;;;;;;;35.13;32.20;;;;;;;;;;5034718;28;20921;-86
2021/08/20 04:01:59;;;;;;;36.20;33.10;;;;;;;;;;5035106;28;20444;-86
2021/08/20 04:04:27;;;;;;;38.57;35.27;;;;;;;;;;5034125;28;20415;-86
2021/08/20 04:06:54;;;;;;;37.63;34.30;;;;;;;;;;5034380;28;20440;-86
2021/08/20 04:09:21;;;;;;;35.13;31.90;;;;;;;;;;5034849;28;20457;-87
2021/08/20 04:11:49;;;;;;;35.93;33.00;;;;;;;;;;5035546;28;20433;-86
2021/08/20 04:14:16;;;;;;;35.00;32.20;;;;;;;;;;5034562;28;20411;-86
2021/08/20 04:16:44;;;;;;;38.80;34.70;;;;;;;;;;5034787;28;20448;-87
2021/08/20 04:19:13;;;;;;;37.53;34.30;;;;;;;;;;5034599;28;20411;-86
2021/08/20 04:21:40;;;;;;;37.30;34.10;;;;;;;;;;5017339;28;20448;-86
2021/08/20 04:24:12;;;;;;;35.50;32.40;;;;;;;;;;5034407;28;20445;-86
2021/08/20 04:26:39;;;;;;;37.47;34.07;;;;;;;;;;5018002;28;20486;-86
2021/08/20 04:29:07;;;;;;;35.93;32.93;;;;;;;;;;5034544;28;20419;-86
2021/08/20 04:31:34;;;;;;;36.33;33.17;;;;;;;;;;5034528;28;20421;-86
2021/08/20 04:34:02;;;;;;;37.73;34.43;;;;;;;;;;5034446;28;20418;-86
2021/08/20 04:36:31;;;;;;;37.37;34.27;;;;;;;;;;5034298;28;20469;-86
2021/08/20 04:38:58;;;;;;;37.97;34.80;;;;;;;;;;5016688;28;20418;-86
2021/08/20 04:41:25;;;;;;;38.93;35.07;;;;;;;;;;5033954;28;20449;-86
2021/08/20 04:43:53;;;;;;;37.80;34.60;;;;;;;;;;5034167;28;20413;-86
2021/08/20 04:46:20;;;;;;;37.37;33.97;;;;;;;;;;5034070;28;20418;-86
2021/08/20 04:48:47;;;;;;;37.20;34.30;;;;;;;;;;5033856;28;20431;-86
2021/08/20 04:51:15;;;;;;;38.57;35.27;;;;;;;;;;5034257;28;20418;-86
2021/08/20 04:53:44;;;;;;;35.70;32.43;;;;;;;;;;5034246;28;20410;-86
2021/08/20 04:56:11;;;;;;;38.70;35.47;;;;;;;;;;5033836;28;20873;-83
2021/08/20 04:58:38;;;;;;;37.50;34.13;;;;;;;;;;5033832;28;20414;-83
2021/08/20 05:01:06;;;;;;;38.67;35.27;;;;;;;;;;5033497;28;20907;-83
2021/08/20 05:03:34;;;;;;;36.97;33.50;;;;;;;;;;5016301;28;20823;-86
2021/08/20 05:06:01;;;;;;;37.53;33.90;;;;;;;;;;5034150;28;20422;-87
2021/08/20 05:08:28;;;;;;;38.70;35.10;;;;;;;;;;5033763;28;20410;-83
2021/08/20 05:10:57;;;;;;;38.40;34.77;;;;;;;;;;5033321;28;20439;-83
2021/08/20 05:13:25;;;;;;;40.70;36.70;;;;;;;;;;5033447;28;20766;-83
2021/08/20 05:15:52;;;;;;;37.23;34.03;;;;;;;;;;5033547;28;20466;-83
2021/08/20 05:18:19;;;;;;;37.30;34.10;;;;;;;;;;5037651;28;20425;-83
2021/08/20 05:20:46;;;;;;;38.50;35.27;;;;;;;;;;5037419;28;20416;-83
2021/08/20 05:23:14;;;;;;;36.23;32.80;;;;;;;;;;5037676;28;20403;-83
2021/08/20 05:25:42;;;;;;;38.43;35.03;;;;;;;;;;5037521;28;20444;-83
2021/08/20 05:28:12;;;;;;;37.07;33.53;;;;;;;;;;5037511;28;20441;-83
2021/08/20 05:30:40;;;;;;;37.10;33.90;;;;;;;;;;5037081;28;20418;-83
2021/08/20 05:33:08;;;;;;;37.83;34.57;;;;;;;;;;5020138;28;20427;-83
2021/08/20 05:35:35;;;;;;;37.83;34.50;;;;;;;;;;5036945;28;20467;-83
2021/08/20 05:38:03;;;;;;;37.13;33.97;;;;;;;;;;5037286;28;20498;-83
2021/08/20 05:40:30;;;;;;;37.30;33.53;;;;;;;;;;5036737;28;20457;-83
2021/08/20 05:42:58;;;;;;;38.13;34.83;;;;;;;;;;5036938;28;20443;-83
2021/08/20 05:45:27;;;;;;;40.77;36.57;;;;;;;;;;5037334;28;20422;-85
2021/08/20 05:47:54;;;;;;;37.87;34.57;;;;;;;;;;5037177;28;20417;-83
2021/08/20 05:50:22;;;;;;;37.50;34.13;;;;;;;;;;5036943;28;20406;-83
2021/08/20 05:52:49;;;;;;;40.37;36.73;;;;;;;;;;5036819;28;20924;-83
2021/08/20 05:55:16;;;;;;;39.47;35.83;;;;;;;;;;5036731;28;20458;-83
2021/08/20 05:57:44;;;;;;;40.10;36.40;;;;;;;;;;5037110;28;20561;-83
2021/08/20 06:00:12;;;;;;;39.93;36.53;;;;;;;;;;5036803;28;20439;-83
2021/08/20 06:02:42;;;;;;;40.67;36.80;;;;;;;;;;5036548;28;20429;-83
2021/08/20 06:05:10;;;;;;;38.00;34.30;;;;;;;;;;5036462;28;20458;-82
2021/08/20 06:07:37;;;;;;;36.40;33.20;;;;;;;;;;5036419;28;20414;-83
2021/08/20 06:10:05;;;;;;;35.67;32.60;;;;;;;;;;5036479;28;20838;-83
2021/08/20 06:12:32;;;;;;;35.73;32.83;;;;;;;;;;5036267;28;20435;-83
2021/08/20 06:15:00;;;;;;;38.00;34.40;;;;;;;;;;5036660;28;20437;-83
2021/08/20 06:17:27;;;;;;;34.70;31.97;;;;;;;;;;5036408;28;20418;-83
2021/08/20 06:19:56;;;;;;;36.30;33.20;;;;;;;;;;5036138;28;20426;-83
2021/08/20 06:22:24;;;;;;;38.40;34.80;;;;;;;;;;5036394;28;20792;-83
2021/08/20 06:24:51;;;;;;;36.47;33.57;;;;;;;;;;5036621;28;20410;-83
2021/08/20 06:27:18;;;;;;;36.43;33.43;;;;;;;;;;5036185;28;20448;-83
2021/08/20 06:29:46;;;;;;;33.83;31.10;;;;;;;;;;5018147;28;20473;-83
2021/08/20 06:32:13;;;;;;;34.57;31.60;;;;;;;;;;5035861;28;20415;-83
2021/08/20 06:34:40;;;;;;;35.13;32.13;;;;;;;;;;5036004;28;20415;-83
2021/08/20 06:37:09;;;;;;;35.77;32.67;;;;;;;;;;5018467;28;20488;-83
2021/08/20 06:39:37;;;;;;;35.93;32.93;;;;;;;;;;5035777;28;20779;-83
2021/08/20 06:42:04;;;;;;;34.93;32.10;;;;;;;;;;5035741;28;20454;-83
2021/08/20 06:44:32;;;;;;;34.23;31.17;;;;;;;;;;5036018;28;20440;-83
2021/08/20 06:46:59;;;;;;;34.73;31.83;;;;;;;;;;5036082;28;20407;-83
2021/08/20 06:49:26;;;;;;;35.47;32.57;;;;;;;;;;5035625;28;20441;-82
2021/08/20 06:51:54;;;;;;;34.80;32.00;;;;;;;;;;5035840;28;20418;-83
2021/08/20 06:54:23;;;;;;;38.20;34.80;;;;;;;;;;5035704;28;20449;-83
2021/08/20 06:56:50;;;;;;;33.27;30.23;;;;;;;;;;5035676;28;20490;-83
2021/08/20 06:59:17;;;;;;;34.63;31.70;;;;;;;;;;5035905;28;20428;-83
2021/08/20 07:01:45;;;;;;;35.10;31.80;;;;;;;;;;5035708;28;20407;-83
2021/08/20 07:04:12;;;;;;;35.47;32.57;;;;;;;;;;5035431;28;20435;-83
2021/08/20 07:06:39;;;;;;;35.20;32.20;;;;;;;;;;5035399;28;20436;-83
2021/08/20 07:09:07;;;;;;;35.13;32.03;;;;;;;;;;5035633;28;20782;-84
2021/08/20 07:11:35;;;;;;;34.57;31.87;;;;;;;;;;5035651;28;20440;-83
2021/08/20 07:14:03;;;;;;;37.90;34.33;;;;;;;;;;5035257;28;20418;-83
2021/08/20 07:16:30;;;;;;;36.93;33.37;;;;;;;;;;5035536;28;20461;-84
2021/08/20 07:18:58;;;;;;;37.33;34.20;;;;;;;;;;5036115;28;20452;-83
2021/08/20 07:21:26;;;;;;;34.67;31.40;;;;;;;;;;5035825;28;20535;-83
2021/08/20 07:23:54;;;;;;;36.93;33.47;;;;;;;;;;5035977;28;20990;-85
2021/08/20 07:26:21;;;;;;;39.03;35.33;;;;;;;;;;5035571;28;20430;-85
2021/08/20 07:28:50;;;;;;;35.77;32.73;;;;;;;;;;5035146;28;20459;-84
2021/08/20 07:31:17;;;;;;;37.63;33.90;;;;;;;;;;5035566;28;20433;-84
2021/08/20 07:33:45;;;;;;;39.20;35.47;;;;;;;;;;5035649;28;20412;-84
2021/08/20 07:36:12;;;;;;;37.90;34.70;;;;;;;;;;5035191;28;20495;-83
2021/08/20 07:38:40;;;;;;;38.27;34.87;;;;;;;;;;5034904;28;20459;-83
2021/08/20 07:41:07;;;;;;;40.07;36.43;;;;;;;;;;5034660;28;21003;-84
2021/08/20 07:43:34;;;;;;;39.27;35.87;;;;;;;;;;5034671;28;20429;-84
2021/08/20 07:46:03;;;;;;;40.47;36.63;;;;;;;;;;5034751;28;20968;-83
2021/08/20 07:48:31;;;;;;;40.93;37.20;;;;;;;;;;5035030;28;20802;-84
2021/08/20 07:50:58;;;;;;;40.20;36.80;;;;;;;;;;5034698;28;20506;-84
2021/08/20 07:53:25;;;;;;;38.20;35.00;;;;;;;;;;5034928;28;20436;-84
2021/08/20 07:55:53;;;;;;;38.90;35.37;;;;;;;;;;5034741;28;20450;-84
2021/08/20 07:58:21;;;;;;;39.17;35.97;;;;;;;;;;5034871;28;20470;-84
2021/08/20 08:00:48;;;;;;;40.43;36.93;;;;;;;;;;5034429;28;20414;-84
2021/08/20 08:03:17;;;;;;;37.80;34.63;;;;;;;;;;5034760;28;20475;-84
2021/08/20 08:05:45;;;;;;;38.37;35.27;;;;;;;;;;5034762;28;20403;-84
2021/08/20 08:08:12;;;;;;;39.27;35.97;;;;;;;;;;5034392;28;20428;-83
2021/08/20 08:10:41;;;;;;;39.03;35.90;;;;;;;;;;5034487;28;20790;-83
2021/08/20 08:13:08;;;;;;;39.40;35.17;;;;;;;;;;5034738;28;20426;-83
2021/08/20 08:15:36;;;;;;;38.17;35.07;;;;;;;;;;5034186;28;20423;-83
2021/08/20 08:18:03;;;;;;;39.87;36.37;;;;;;;;;;5034106;28;20434;-83
2021/08/20 08:20:32;;;;;;;37.23;34.30;;;;;;;;;;5034025;28;20447;-84
2021/08/20 08:22:59;;;;;;;37.83;34.90;;;;;;;;;;5034584;28;20456;-84
2021/08/20 08:25:29;;;;;;;38.27;35.23;;;;;;;;;;5016560;28;20417;-82
2021/08/20 08:27:57;;;;;;;37.20;34.27;;;;;;;;;;5034332;28;20499;-86
2021/08/20 08:30:26;;;;;;;37.97;35.03;;;;;;;;;;5034086;28;20444;-85
2021/08/20 08:32:54;;;;;;;41.27;37.77;;;;;;;;;;5034301;28;20482;-84
2021/08/20 08:35:21;;;;;;;37.00;34.10;;;;;;;;;;5034511;28;20521;-86
2021/08/20 08:37:50;;;;;;;38.30;35.17;;;;;;;;;;5034031;28;20465;-85
2021/08/20 08:40:17;;;;;;;38.63;35.73;;;;;;;;;;5033621;28;20467;-85
2021/08/20 08:42:45;;;;;;;38.77;35.63;;;;;;;;;;5033956;28;20418;-85
2021/08/20 08:45:12;;;;;;;40.30;37.30;;;;;;;;;;5033940;28;20411;-84
2021/08/20 08:47:40;;;;;;;40.60;37.33;;;;;;;;;;5034051;28;20434;-84
2021/08/20 08:50:09;;;;;;;43.17;39.93;;;;;;;;;;5033969;28;20535;-84
2021/08/20 08:52:36;;;;;;;40.23;37.00;;;;;;;;;;5033301;28;20510;-85
2021/08/20 08:55:09;;;;;;;40.63;37.43;;;;;;;;;;5033820;28;20422;-85
2021/08/20 08:57:36;;;;;;;40.47;37.07;;;;;;;;;;5033894;28;20481;-84
2021/08/20 09:00:05;;;;;;;41.53;38.43;;;;;;;;;;5033606;28;20429;-85
2021/08/20 09:02:32;;;;;;;43.77;40.37;;;;;;;;;;5033750;28;20459;-85
2021/08/20 09:05:01;;;;;;;41.87;38.57;;;;;;;;;;5033685;28;20415;-84
2021/08/20 09:07:29;;;;;;;41.70;38.30;;;;;;;;;;5034012;28;20440;-87
2021/08/20 09:10:14;;;;;;;41.23;38.27;;;;;;;;;;5033867;28;20781;-85
2021/08/20 09:12:53;;;;;;;42.20;39.20;;;;;;;;;;5033497;28;20411;-85
2021/08/20 09:15:21;;;;;;;40.40;37.60;;;;;;;;;;5033873;28;20404;-85
2021/08/20 09:17:49;;;;;;;41.93;38.70;;;;;;;;;;5033496;28;20976;-84
2021/08/20 09:20:18;;;;;;;43.17;40.03;;;;;;;;;;5033454;28;20467;-85
2021/08/20 09:22:46;;;;;;;45.87;41.43;;;;;;;;;;5033773;28;20449;-85
2021/08/20 09:25:31;;;;;;;42.17;39.00;;;;;;;;;;5033519;28;20442;-92
2021/08/20 09:28:15;;;;;;;39.20;36.43;;;;;;;;;;5033718;28;20881;-84
2021/08/20 09:30:43;;;;;;;43.93;40.57;;;;;;;;;;5034287;28;20429;-87
2021/08/20 09:33:12;;;;;;;43.63;40.23;;;;;;;;;;5034009;28;20747;-88
2021/08/20 09:35:40;;;;;;;45.33;41.83;;;;;;;;;;5033262;28;20469;-87
2021/08/20 09:38:11;;;;;;;42.67;39.50;;;;;;;;;;5034419;28;20495;-86
2021/08/20 09:40:40;;;;;;;39.23;36.40;;;;;;;;;;5033492;28;20454;-83
2021/08/20 09:43:13;;;;;;;41.10;38.20;;;;;;;;;;5032876;28;20813;-82
2021/08/20 09:45:40;;;;;;;39.60;36.90;;;;;;;;;;5032999;28;20442;-79
2021/08/20 09:48:08;;;;;;;40.80;37.37;;;;;;;;;;5033290;28;20767;-83
2021/08/20 09:50:42;;;;;;;41.73;38.70;;;;;;;;;;5033188;28;20419;-84
2021/08/20 09:53:13;;;;;;;38.57;35.77;;;;;;;;;;5032400;28;20418;-85
2021/08/20 09:55:44;;;;;;;36.90;34.03;;;;;;;;;;5033502;28;20424;-86
2021/08/20 09:58:13;;;;;;;35.47;33.07;;;;;;;;;;5033474;28;20496;-82
2021/08/20 10:00:42;;;;;;;31.47;29.47;;;;;;;;;;5032526;28;20449;-83
2021/08/20 10:03:10;;;;;;;31.50;29.17;;;;;;;;;;5034010;28;20414;-82
2021/08/20 10:05:39;;;;;;;31.93;29.60;;;;;;;;;;5037907;28;20448;-86
2021/08/20 10:08:06;;;;;;;31.87;29.67;;;;;;;;;;5036993;28;20898;-86
2021/08/20 10:10:34;;;;;;;31.80;29.50;;;;;;;;;;5019137;28;20485;-87
2021/08/20 10:13:03;;;;;;;31.00;28.67;;;;;;;;;;5037011;28;20420;-87
2021/08/20 10:15:32;;;;;;;32.87;30.63;;;;;;;;;;5036385;28;20774;-82
2021/08/20 10:18:01;;;;;;;30.97;28.87;;;;;;;;;;5036540;28;20489;-82
2021/08/20 10:20:28;;;;;;;33.60;31.20;;;;;;;;;;5036179;28;20511;-82
2021/08/20 10:22:55;;;;;;;33.90;31.33;;;;;;;;;;5036112;28;20982;-81
2021/08/20 10:25:23;;;;;;;33.90;31.63;;;;;;;;;;5036349;28;20443;-82
2021/08/20 10:27:52;;;;;;;33.60;31.40;;;;;;;;;;5036194;28;20451;-82
2021/08/20 10:30:21;;;;;;;33.80;31.00;;;;;;;;;;5036227;28;20532;-82
2021/08/20 10:33:01;;;;;;;35.17;32.50;;;;;;;;;;5036293;28;20783;-82
2021/08/20 10:35:48;;;;;;;37.00;34.30;;;;;;;;;;5035931;28;20413;-82
2021/08/20 10:38:25;;;;;;;37.67;34.90;;;;;;;;;;5036166;28;20464;-82
2021/08/20 10:41:07;;;;;;;35.50;32.60;;;;;;;;;;5035749;28;20486;-82
2021/08/20 10:43:51;;;;;;;33.07;30.57;;;;;;;;;;5035957;28;20418;-82
2021/08/20 10:46:37;;;;;;;38.47;35.63;;;;;;;;;;5036115;28;20418;-82
2021/08/20 10:49:22;;;;;;;38.23;35.23;;;;;;;;;;5035687;28;20425;-82
2021/08/20 10:52:02;;;;;;;37.87;35.17;;;;;;;;;;5035622;28;20419;-83
2021/08/20 10:54:48;;;;;;;38.57;35.47;;;;;;;;;;5035871;28;20447;-82
2021/08/20 10:57:30;;;;;;;37.37;34.50;;;;;;;;;;5035564;28;20476;-82
2021/08/20 10:59:58;;;;;;;36.60;33.90;;;;;;;;;;5034818;28;20947;-83
2021/08/20 11:02:43;;;;;;;34.83;32.27;;;;;;;;;;5035394;28;20412;-82
2021/08/20 11:05:14;;;;;;;33.03;30.53;;;;;;;;;;5035730;28;20441;-83
2021/08/20 11:07:45;;;;;;;32.47;30.10;;;;;;;;;;5035489;28;20425;-82
2021/08/20 11:10:27;;;;;;;34.00;31.63;;;;;;;;;;5035246;28;20842;-82
2021/08/20 11:13:00;;;;;;;34.20;31.60;;;;;;;;;;5032868;28;20462;-83
2021/08/20 11:15:44;;;;;;;35.37;32.97;;;;;;;;;;5035195;28;20793;-82
2021/08/20 11:18:11;;;;;;;34.53;32.03;;;;;;;;;;5035442;28;20576;-82
2021/08/20 11:20:41;;;;;;;36.60;33.80;;;;;;;;;;5035135;28;20926;-82
2021/08/20 11:23:16;;;;;;;37.07;34.43;;;;;;;;;;5035062;28;20479;-82
2021/08/20 11:25:44;;;;;;;37.93;35.03;;;;;;;;;;5035401;28;20428;-82
2021/08/20 11:28:17;;;;;;;37.87;34.83;;;;;;;;;;5035278;28;20423;-82
2021/08/20 11:30:45;;;;;;;36.97;34.27;;;;;;;;;;5034805;28;20421;-82
2021/08/20 11:33:17;;;;;;;38.23;35.53;;;;;;;;;;5033634;28;20443;-83
2021/08/20 11:35:47;;;;;;;38.50;35.60;;;;;;;;;;5034629;28;20417;-81
2021/08/20 11:38:21;;;;;;;37.70;34.67;;;;;;;;;;5035032;28;20486;-82
2021/08/20 11:40:49;;;;;;;36.90;34.10;;;;;;;;;;5034562;28;20485;-81
2021/08/20 11:43:17;;;;;;;38.07;35.33;;;;;;;;;;5034803;28;20920;-82
2021/08/20 11:45:45;;;;;;;36.83;34.13;;;;;;;;;;5034909;28;20763;-82
2021/08/20 11:48:13;;;;;;;38.37;35.13;;;;;;;;;;5034578;28;20442;-82
2021/08/20 11:50:40;;;;;;;35.20;32.50;;;;;;;;;;5017387;28;20412;-82
2021/08/20 11:53:09;;;;;;;35.50;32.80;;;;;;;;;;5034698;28;20463;-82
2021/08/20 11:55:37;;;;;;;37.13;33.70;;;;;;;;;;5034836;28;20449;-82
2021/08/20 11:58:04;;;;;;;37.13;34.33;;;;;;;;;;5034392;28;20480;-82
2021/08/20 12:00:38;;;;;;;33.30;30.70;;;;;;;;;;5034541;28;20417;-82
2021/08/20 12:03:08;;;;;;;34.33;31.60;;;;;;;;;;5034597;28;20814;-82
2021/08/20 12:05:36;;;;;;;35.13;32.10;;;;;;;;;;5034541;28;20422;-81
2021/08/20 12:08:16;;;;;;;34.30;31.60;;;;;;;;;;5034214;28;20911;-83
2021/08/20 12:10:44;;;;;;;34.13;31.30;;;;;;;;;;5034260;28;20429;-83
2021/08/20 12:13:12;;;;;;;35.23;32.47;;;;;;;;;;5033974;28;20419;-82
2021/08/20 12:15:40;;;;;;;35.10;32.40;;;;;;;;;;5034393;28;20781;-83
2021/08/20 12:18:20;;;;;;;35.07;32.30;;;;;;;;;;5034384;28;20489;-87
2021/08/20 12:20:48;;;;;;;37.40;34.30;;;;;;;;;;5034503;28;20425;-85
2021/08/20 12:23:17;;;;;;;38.30;35.10;;;;;;;;;;5034616;28;20413;-87
2021/08/20 12:25:44;;;;;;;40.00;36.80;;;;;;;;;;5034125;28;20443;-86
2021/08/20 12:28:12;;;;;;;39.00;35.90;;;;;;;;;;5034231;28;20444;-87
2021/08/20 12:30:40;;;;;;;38.97;35.77;;;;;;;;;;5034253;28;20431;-86
2021/08/20 12:33:08;;;;;;;38.37;35.47;;;;;;;;;;5034289;28;20428;-85
2021/08/20 12:35:35;;;;;;;40.93;37.70;;;;;;;;;;5033621;28;20446;-86
2021/08/20 12:38:04;;;;;;;43.50;39.60;;;;;;;;;;5034429;28;20449;-87
2021/08/20 12:40:37;;;;;;;42.13;38.77;;;;;;;;;;5034153;28;20493;-88
2021/08/20 12:43:04;;;;;;;40.17;36.97;;;;;;;;;;5035257;28;20902;-86
2021/08/20 12:45:32;;;;;;;40.03;36.70;;;;;;;;;;5034457;28;20416;-86
2021/08/20 12:48:04;;;;;;;40.73;37.50;;;;;;;;;;5034036;28;20453;-84
2021/08/20 12:50:31;;;;;;;40.57;37.17;;;;;;;;;;5033751;28;20461;-86
2021/08/20 12:53:02;;;;;;;38.77;35.87;;;;;;;;;;5016249;28;20442;-82
2021/08/20 12:55:31;;;;;;;40.33;37.03;;;;;;;;;;5033868;28;20417;-82
2021/08/20 12:58:02;;;;;;;39.13;36.10;;;;;;;;;;5033517;28;20451;-84
2021/08/20 13:00:31;;;;;;;40.57;37.03;;;;;;;;;;5016663;28;20512;-85
2021/08/20 13:02:59;;;;;;;39.63;36.53;;;;;;;;;;5034035;28;20508;-85
2021/08/20 13:05:26;;;;;;;39.70;36.50;;;;;;;;;;5034078;28;20458;-85
2021/08/20 13:07:54;;;;;;;39.77;36.50;;;;;;;;;;5033641;28;20420;-85
2021/08/20 13:10:21;;;;;;;38.27;35.00;;;;;;;;;;5033491;28;20442;-85
2021/08/20 13:12:49;;;;;;;40.07;36.87;;;;;;;;;;5033877;28;20449;-90
2021/08/20 13:15:18;;;;;;;39.80;36.50;;;;;;;;;;5033743;28;20482;-85
2021/08/20 13:17:46;;;;;;;39.47;36.20;;;;;;;;;;5033758;28;20453;-85
2021/08/20 13:20:13;;;;;;;43.07;39.77;;;;;;;;;;5033729;28;20421;-85
2021/08/20 13:22:44;;;;;;;42.30;38.70;;;;;;;;;;5034216;28;20457;-85
2021/08/20 13:25:12;;;;;;;40.87;37.37;;;;;;;;;;5016923;28;20442;-85
2021/08/20 13:27:40;;;;;;;41.77;38.37;;;;;;;;;;5033346;28;20450;-85
2021/08/20 13:30:08;;;;;;;44.87;40.70;;;;;;;;;;5033728;28;20414;-84
2021/08/20 13:32:37;;;;;;;39.00;35.97;;;;;;;;;;5033379;28;20428;-84
2021/08/20 13:35:05;;;;;;;40.10;36.80;;;;;;;;;;5033607;28;20417;-85
2021/08/20 13:37:32;;;;;;;38.30;35.10;;;;;;;;;;5034861;28;20444;-85
2021/08/20 13:40:00;;;;;;;37.63;34.53;;;;;;;;;;5036961;28;20445;-85
2021/08/20 13:42:27;;;;;;;39.97;36.70;;;;;;;;;;5037116;28;20446;-84
2021/08/20 13:44:54;;;;;;;40.10;37.00;;;;;;;;;;5037372;28;20464;-85
2021/08/20 13:47:22;;;;;;;37.90;34.70;;;;;;;;;;5037314;28;20445;-84
2021/08/20 13:49:51;;;;;;;39.00;35.90;;;;;;;;;;5019584;28;20436;-85
2021/08/20 13:52:18;;;;;;;38.03;35.03;;;;;;;;;;5037286;28;20436;-85
2021/08/20 13:54:46;;;;;;;36.50;33.70;;;;;;;;;;5037266;28;20416;-85
2021/08/20 13:57:13;;;;;;;36.17;33.23;;;;;;;;;;5036922;28;20823;-85
2021/08/20 13:59:41;;;;;;;36.20;33.50;;;;;;;;;;5037000;28;21003;-85
2021/08/20 14:02:08;;;;;;;36.97;34.17;;;;;;;;;;5037121;28;20450;-84
2021/08/20 14:04:35;;;;;;;34.50;31.90;;;;;;;;;;5037087;28;20415;-85
2021/08/20 14:07:04;;;;;;;34.90;32.30;;;;;;;;;;5036963;28;20438;-85
2021/08/20 14:09:33;;;;;;;33.93;31.47;;;;;;;;;;5036643;28;20465;-85
2021/08/20 14:12:00;;;;;;;34.00;31.47;;;;;;;;;;5037073;28;20471;-85
2021/08/20 14:14:28;;;;;;;33.17;30.77;;;;;;;;;;5019082;28;20975;-85
2021/08/20 14:16:55;;;;;;;34.53;32.20;;;;;;;;;;5036486;28;20451;-85
2021/08/20 14:19:22;;;;;;;33.17;30.40;;;;;;;;;;5036591;28;20465;-84
2021/08/20 14:21:50;;;;;;;32.13;29.63;;;;;;;;;;5036915;28;20442;-85
2021/08/20 14:24:19;;;;;;;32.23;29.73;;;;;;;;;;5036730;28;20476;-85